Foss, Oklahoma
Current Conditions -  °F | °C
As of 1:53 AM on Friday 21 Nov 2014 (Local Time) from KCSM Reporting Station
Clear Clear  
Wind Chill: 30°   Ceiling: Unl
Heat Index: 37°   Visibility: 9mi
Dew Point: 34°   Wind: 10mph
Humidity: 89%   Direction: 10°N
Pressure: 30.02"   Gusts: NA
Location:  35.45°N, 99.17°W
Report Text: KCSM 210753Z AUTO 01009KT 9SM CLR 03/01 A3002 RMK AO2 SLP164 T00280011
Loading
Personal Weather Stations






























Interactive Weather Map New forecast layout! Learn more

10-Day Weather Forecast

Advertisements
Track Severe Weather on mobile